Time;durP1;ratioP1;P1;durP2;ratioP2;P2;SDS_P1;SDS_P2;PMS_P1;PMS_P2;Temp;Humidity;BMP_temperature;BMP_pressure;BME280_temperature;BME280_humidity;BME280_pressure;Samples;Min_cycle;Max_cycle;Signal;HPM_P1;HPM_P2
2021/07/16 00:01:18;;;;;;;33.63;17.75;;;;;;;19.24;94.33;100989.84;4983079;28;20061;-89
2021/07/16 00:03:50;;;;;;;35.22;18.50;;;;;;;19.23;94.40;100990.75;4987107;28;20496;-89
2021/07/16 00:06:19;;;;;;;44.10;20.75;;;;;;;19.23;94.40;100990.75;4973714;28;20140;-89
2021/07/16 00:08:46;;;;;;;33.78;19.58;;;;;;;19.22;94.78;100994.38;5003523;28;20685;-89
2021/07/16 00:11:16;;;;;;;29.67;18.23;;;;;;;19.20;95.10;100986.44;4979728;28;20064;-89
2021/07/16 00:13:48;;;;;;;33.90;15.77;;;;;;;19.18;94.62;100993.63;4989134;28;20053;-89
2021/07/16 00:16:17;;;;;;;34.67;19.95;;;;;;;19.17;95.30;100992.72;4986911;28;20065;-89
2021/07/16 00:18:55;;;;;;;30.58;17.45;;;;;;;19.15;95.55;100989.28;4990461;28;20049;-90
2021/07/16 00:21:29;;;;;;;31.75;19.38;;;;;;;19.15;95.67;100997.25;4987119;28;20056;-88
2021/07/16 00:23:58;;;;;;;33.85;19.60;;;;;;;19.11;95.58;100992.13;4985455;28;20140;-89
2021/07/16 00:26:28;;;;;;;35.17;18.83;;;;;;;19.08;95.81;100994.91;5003218;28;20046;-90
2021/07/16 00:28:56;;;;;;;29.27;17.95;;;;;;;19.05;95.80;101000.34;5002557;28;20038;-90
2021/07/16 00:31:41;;;;;;;;;;;;;;;;;;;;;
2021/07/16 00:34:21;;;;;;;33.72;20.08;;;;;;;18.94;96.90;100995.41;5005280;28;20053;-89
2021/07/16 00:36:59;;;;;;;36.65;20.10;;;;;;;18.95;97.17;101000.66;5014497;28;20041;-89
2021/07/16 00:39:27;;;;;;;40.13;20.83;;;;;;;18.94;96.96;100992.78;5001858;28;20499;-89
2021/07/16 00:41:59;;;;;;;32.05;17.13;;;;;;;18.97;97.10;101000.63;4966250;28;20034;-90
2021/07/16 00:44:29;;;;;;;37.33;20.67;;;;;;;18.98;96.90;100997.91;5002713;28;20205;-90
2021/07/16 00:46:58;;;;;;;35.20;20.45;;;;;;;18.94;97.04;101001.63;4988818;28;20108;-89
2021/07/16 00:49:28;;;;;;;37.95;20.38;;;;;;;18.91;97.18;101004.38;4986505;28;20056;-89
2021/07/16 00:51:58;;;;;;;35.72;20.50;;;;;;;18.88;97.23;101006.22;4997664;28;20120;-89
2021/07/16 00:54:28;;;;;;;38.42;22.33;;;;;;;18.87;97.59;101004.53;4995823;28;20117;-90
2021/07/16 00:57:08;;;;;;;42.58;22.50;;;;;;;18.84;97.59;101014.31;5002158;28;20041;-90
2021/07/16 00:59:39;;;;;;;31.90;19.23;;;;;;;18.82;97.78;101010.00;5002887;28;20609;-90
2021/07/16 01:02:08;;;;;;;33.03;20.27;;;;;;;18.84;97.70;101010.81;5017069;28;20063;-89
2021/07/16 01:04:39;;;;;;;52.25;23.67;;;;;;;18.83;97.88;101014.38;5007453;28;20041;-89
2021/07/16 01:07:09;;;;;;;33.75;18.80;;;;;;;18.79;97.95;101003.00;5008661;28;20503;-88
2021/07/16 01:09:39;;;;;;;35.25;20.52;;;;;;;18.77;97.98;101006.63;5008341;28;20048;-89
2021/07/16 01:12:10;;;;;;;42.47;20.88;;;;;;;18.80;97.80;101010.06;5006746;28;20053;-88
2021/07/16 01:14:39;;;;;;;45.95;21.75;;;;;;;18.84;97.60;101002.84;5006324;28;20703;-90
2021/07/16 01:17:08;;;;;;;43.28;22.02;;;;;;;18.83;97.28;101001.97;4990834;28;20141;-88
2021/07/16 01:20:17;;;;;;;35.55;20.02;;;;;;;18.85;97.59;101004.56;4991220;28;20045;-90
2021/07/16 01:22:49;;;;;;;33.90;20.30;;;;;;;18.85;97.35;101008.09;4995057;28;20133;-88
2021/07/16 01:25:20;;;;;;;35.80;19.60;;;;;;;18.84;97.38;101011.66;5008056;28;20061;-89
2021/07/16 01:28:01;;;;;;;;;;;;;;;;;;;;;
2021/07/16 01:30:37;;;;;;;41.40;20.23;;;;;;;18.80;97.48;101010.06;4999654;28;20439;-89
2021/07/16 01:33:07;;;;;;;28.20;16.90;;;;;;;18.80;97.39;101011.84;4992526;28;20053;-89
2021/07/16 01:35:56;;;;;;;47.45;19.15;;;;;;;18.80;97.19;101010.06;5027071;28;20787;-89
2021/07/16 01:38:28;;;;;;;40.63;18.70;;;;;;;18.79;97.06;101015.41;5007641;28;20041;-89
2021/07/16 01:40:56;;;;;;;33.42;16.95;;;;;;;18.81;97.00;101013.56;5007391;28;20045;-87
2021/07/16 01:43:37;;;;;;;28.88;16.33;;;;;;;18.84;96.62;101016.13;4993372;28;20441;-89
2021/07/16 01:46:21;;;;;;;;;;;;;;;;;;;;;
2021/07/16 01:48:59;;;;;;;34.53;18.90;;;;;;;18.89;96.22;101018.56;4995756;28;20046;-90
2021/07/16 01:51:29;;;;;;;36.88;17.83;;;;;;;18.85;96.31;101015.16;5008427;28;20045;-88
2021/07/16 01:53:59;;;;;;;53.28;19.55;;;;;;;18.82;96.54;101017.94;4993606;28;20049;-89
2021/07/16 01:56:26;;;;;;;36.70;17.75;;;;;;;18.77;96.47;101023.44;4996131;28;20716;-89
2021/07/16 01:58:58;;;;;;;34.58;16.65;;;;;;;18.78;96.55;101016.34;5013890;28;20132;-89
2021/07/16 02:01:28;;;;;;;27.05;15.25;;;;;;;18.77;96.26;101028.75;5008135;28;20300;-88
2021/07/16 02:03:58;;;;;;;45.70;17.80;;;;;;;18.73;96.26;101024.44;4998189;28;20049;-89
2021/07/16 02:06:30;;;;;;;34.58;14.90;;;;;;;18.71;96.39;101026.31;5009324;28;20118;-88
2021/07/16 02:09:00;;;;;;;37.40;16.80;;;;;;;18.70;96.46;101031.69;4995063;28;20095;-89
2021/07/16 02:11:29;;;;;;;27.88;14.50;;;;;;;18.68;96.40;101031.72;5013549;28;20061;-89
2021/07/16 02:13:58;;;;;;;33.10;15.68;;;;;;;18.67;96.20;101035.31;5000230;28;20079;-89
2021/07/16 02:16:39;;;;;;;31.33;13.73;;;;;;;18.62;96.31;101039.91;4990085;28;20512;-88
2021/07/16 02:19:06;;;;;;;28.63;14.57;;;;;;;18.60;96.26;101044.41;5007426;28;20350;-90
2021/07/16 02:21:34;;;;;;;28.05;16.48;;;;;;;18.57;96.52;101044.50;5002240;28;20815;-88
2021/07/16 02:24:01;;;;;;;31.33;16.65;;;;;;;18.55;96.42;101043.69;5004056;28;20116;-88
2021/07/16 02:26:41;;;;;;;33.67;15.95;;;;;;;18.54;96.46;101048.13;4990413;28;20046;-89
2021/07/16 02:29:10;;;;;;;24.15;15.18;;;;;;;18.51;96.70;101043.81;4989759;28;20057;-90
2021/07/16 02:31:39;;;;;;;30.08;15.98;;;;;;;18.53;96.57;101046.41;5000198;28;20364;-89
2021/07/16 02:34:08;;;;;;;37.22;17.25;;;;;;;18.48;96.76;101048.34;5005285;28;20053;-87
2021/07/16 02:36:37;;;;;;;34.88;15.95;;;;;;;18.42;96.89;101045.91;5007735;28;20313;-90
2021/07/16 02:39:27;;;;;;;28.75;14.52;;;;;;;18.37;97.05;101045.22;5006165;28;20042;-88
2021/07/16 02:42:07;;;;;;;36.08;15.43;;;;;;;18.38;97.15;101045.16;4996846;28;20807;-89
2021/07/16 02:44:49;;;;;;;20.45;12.90;;;;;;;18.39;97.04;101046.03;5002029;28;21014;-90
2021/07/16 02:47:27;;;;;;;23.40;11.70;;;;;;;18.38;97.09;101052.25;5006929;28;20050;-88
2021/07/16 02:50:00;;;;;;;22.30;12.23;;;;;;;18.40;96.99;101059.22;5004967;28;20502;-89
2021/07/16 02:52:27;;;;;;;23.10;11.53;;;;;;;18.37;96.96;101056.69;5005036;28;20087;-89
2021/07/16 02:54:58;;;;;;;21.42;10.57;;;;;;;18.35;97.04;101054.09;4987956;28;20111;-87
2021/07/16 02:57:28;;;;;;;16.10;9.30;;;;;;;18.34;97.16;101054.13;5007475;28;20515;-89
2021/07/16 02:59:59;;;;;;;21.80;11.15;;;;;;;18.30;97.34;101052.50;4988041;28;20184;-89
2021/07/16 03:02:30;;;;;;;24.42;10.98;;;;;;;18.30;97.22;101060.47;5002203;28;20045;-89
2021/07/16 03:05:00;;;;;;;20.70;12.65;;;;;;;18.30;97.19;101061.34;4988720;28;20076;-89
2021/07/16 03:07:39;;;;;;;;;;;;;;;;;;;;;
2021/07/16 03:10:19;;;;;;;21.55;10.13;;;;;;;18.28;96.99;101057.88;5007461;28;20642;-89
2021/07/16 03:12:50;;;;;;;23.17;11.32;;;;;;;18.28;96.81;101071.13;5009954;28;20077;-90
2021/07/16 03:15:23;;;;;;;24.42;11.63;;;;;;;18.27;96.78;101071.19;5005624;28;20128;-89
2021/07/16 03:17:58;;;;;;;19.92;11.20;;;;;;;18.26;96.59;101077.41;5021290;28;20037;-89
2021/07/16 03:20:39;;;;;;;22.10;10.52;;;;;;;18.22;97.02;101076.63;5020355;28;20130;-89
2021/07/16 03:23:09;;;;;;;22.15;11.27;;;;;;;18.21;97.05;101079.34;5005898;28;20053;-89
2021/07/16 03:25:40;;;;;;;23.75;12.13;;;;;;;18.21;97.18;101080.19;5012952;28;20053;-90
2021/07/16 03:28:19;;;;;;;25.20;13.65;;;;;;;18.21;97.28;101085.50;5019779;28;20076;-90
2021/07/16 03:30:49;;;;;;;25.48;13.95;;;;;;;18.15;97.44;101093.66;5024524;28;20056;-89
2021/07/16 03:33:18;;;;;;;30.42;15.18;;;;;;;18.10;97.84;101088.50;4991776;28;20057;-89
2021/07/16 03:35:50;;;;;;;32.33;15.55;;;;;;;18.06;97.82;101091.31;5021823;28;20041;-89
2021/07/16 03:38:20;;;;;;;35.70;14.80;;;;;;;17.99;98.28;101094.16;5022655;28;20053;-89
2021/07/16 03:40:54;;;;;;;37.70;16.42;;;;;;;17.96;98.39;101091.59;5019410;28;20049;-90
2021/07/16 03:43:39;;;;;;;32.60;16.00;;;;;;;17.96;98.76;101090.75;5023813;28;20124;-90
2021/07/16 03:46:09;;;;;;;35.00;17.13;;;;;;;17.93;98.88;101090.88;5004515;28;20505;-89
2021/07/16 03:48:39;;;;;;;34.45;16.90;;;;;;;17.88;98.80;101093.63;5021147;28;20509;-90
2021/07/16 03:51:08;;;;;;;28.30;17.05;;;;;;;17.84;99.34;101087.53;5006631;28;20064;-89
2021/07/16 03:53:40;;;;;;;38.35;16.88;;;;;;;17.85;99.04;101091.94;5028593;28;20055;-89
2021/07/16 03:56:09;;;;;;;30.13;14.48;;;;;;;17.86;98.67;101091.03;5027307;28;20115;-88
2021/07/16 03:58:39;;;;;;;25.67;16.55;;;;;;;17.88;98.84;101090.97;5047599;28;20045;-89
2021/07/16 04:01:08;;;;;;;32.83;16.00;;;;;;;17.93;98.41;101099.66;5010911;28;20056;-89
2021/07/16 04:03:37;;;;;;;26.33;15.52;;;;;;;17.94;97.92;101088.16;5042539;28;20120;-89
2021/07/16 04:06:09;;;;;;;40.38;17.63;;;;;;;17.97;97.51;101093.34;5011152;28;20048;-89
2021/07/16 04:08:39;;;;;;;27.38;14.38;;;;;;;18.00;97.39;101100.31;5046894;28;20045;-89
2021/07/16 04:11:09;;;;;;;34.33;16.00;;;;;;;18.02;97.72;101101.16;5028756;28;20102;-90
2021/07/16 04:13:38;;;;;;;23.27;13.70;;;;;;;18.06;96.92;101096.63;5008457;28;20619;-89
2021/07/16 04:16:07;;;;;;;24.23;13.15;;;;;;;18.05;96.56;101090.44;5011823;28;20651;-91
2021/07/16 04:18:37;;;;;;;21.95;12.50;;;;;;;18.08;96.35;101092.13;5022241;28;20271;-90
2021/07/16 04:21:09;;;;;;;28.60;13.13;;;;;;;18.09;96.07;101086.78;5058781;28;20442;-90
2021/07/16 04:23:38;;;;;;;18.15;12.27;;;;;;;18.12;95.64;101084.03;5046443;28;20051;-90
2021/07/16 04:26:08;;;;;;;18.80;11.45;;;;;;;18.13;95.53;101079.59;5028009;28;20060;-90
2021/07/16 04:28:37;;;;;;;26.63;13.60;;;;;;;18.13;95.37;101092.84;5017343;28;20024;-90
2021/07/16 04:31:22;;;;;;;;;;;;;;;;;;;;;
2021/07/16 04:34:00;;;;;;;35.83;15.57;;;;;;;18.19;94.75;101076.75;5031932;28;20075;-89
2021/07/16 04:36:30;;;;;;;38.90;15.57;;;;;;;18.19;94.79;101079.38;5049378;28;20025;-89
2021/07/16 04:38:59;;;;;;;36.28;14.85;;;;;;;18.17;94.79;101078.56;5035280;28;20024;-89
2021/07/16 04:41:29;;;;;;;38.10;16.58;;;;;;;18.13;94.37;101083.13;5032809;28;20079;-87
2021/07/16 04:43:59;;;;;;;31.02;15.13;;;;;;;18.11;94.64;101090.25;5032466;28;20061;-88
2021/07/16 04:46:28;;;;;;;22.65;14.13;;;;;;;18.13;94.14;101093.72;5021357;28;20690;-90
2021/07/16 04:49:00;;;;;;;25.17;12.63;;;;;;;18.11;93.85;101103.50;5042012;28;20076;-88
2021/07/16 04:51:31;;;;;;;26.55;13.88;;;;;;;18.11;93.85;101102.63;5042388;28;20080;-89
2021/07/16 04:54:16;;;;;;;30.08;12.73;;;;;;;18.13;93.77;101100.78;5046500;28;20044;-89
2021/07/16 04:56:47;;;;;;;24.50;12.63;;;;;;;18.15;93.50;101112.22;5037617;28;20079;-89
2021/07/16 04:59:17;;;;;;;25.25;13.27;;;;;;;18.17;93.27;101113.00;5031777;28;20041;-89
2021/07/16 05:02:01;;;;;;;15.82;10.65;;;;;;;18.16;93.00;101104.22;5029935;28;20049;-90
2021/07/16 05:04:30;;;;;;;19.08;10.73;;;;;;;18.13;92.80;101098.13;5016367;28;20102;-90
2021/07/16 05:07:00;;;;;;;18.88;9.60;;;;;;;18.14;92.57;101110.47;5031248;28;20061;-90
2021/07/16 05:09:29;;;;;;;15.27;8.45;;;;;;;18.15;92.36;101117.50;5011755;28;20048;-90
2021/07/16 05:11:58;;;;;;;20.25;9.98;;;;;;;18.17;91.99;101126.25;5024184;28;20431;-90
2021/07/16 05:14:37;;;;;;;21.50;11.25;;;;;;;18.16;92.25;101119.22;5026352;28;20110;-90
2021/07/16 05:17:19;;;;;;;21.13;10.32;;;;;;;18.16;91.89;101122.75;5021844;28;20388;-90
2021/07/16 05:19:48;;;;;;;19.80;10.60;;;;;;;18.18;92.10;101130.66;5029134;28;20171;-90
2021/07/16 05:22:18;;;;;;;18.88;9.82;;;;;;;18.22;91.62;101126.13;5027392;28;20056;-89
2021/07/16 05:25:31;;;;;;;12.30;8.38;;;;;;;18.30;91.08;101132.03;5027190;28;20048;-88
2021/07/16 05:28:01;;;;;;;18.05;8.55;;;;;;;18.37;90.84;101130.91;5043099;28;20045;-90
2021/07/16 05:30:30;;;;;;;14.88;9.40;;;;;;;18.38;90.93;101126.47;5011593;28;20060;-90
2021/07/16 05:32:59;;;;;;;20.35;9.18;;;;;;;18.39;90.76;101130.84;5029025;28;20052;-89
2021/07/16 05:35:28;;;;;;;31.30;13.90;;;;;;;18.36;90.45;101123.88;5044005;28;20068;-88
2021/07/16 05:37:58;;;;;;;23.92;14.45;;;;;;;18.31;90.63;101123.16;5027576;28;20080;-90
2021/07/16 05:40:40;;;;;;;34.10;15.02;;;;;;;18.33;90.89;101124.84;5011468;28;20135;-91
2021/07/16 05:43:11;;;;;;;28.67;14.65;;;;;;;18.36;90.38;101115.91;5013065;28;20051;-91
2021/07/16 05:45:51;;;;;;;;;;;;;;;;;;;;;
2021/07/16 05:48:27;;;;;;;35.75;15.18;;;;;;;18.41;90.04;101129.00;5041050;28;20114;-91
2021/07/16 05:50:59;;;;;;;25.67;13.10;;;;;;;18.40;90.17;101141.41;5026179;28;20559;-91
2021/07/16 05:53:31;;;;;;;27.67;13.80;;;;;;;18.42;89.98;101141.34;5014617;28;20049;-90
2021/07/16 05:56:00;;;;;;;28.23;12.98;;;;;;;18.40;89.86;101148.50;5027974;28;20041;-91
2021/07/16 06:01:59;;;;;;;31.95;15.98;;;;;;;18.34;89.94;101154.84;5044504;28;21050;-88
2021/07/16 06:04:26;;;;;;;25.73;13.82;;;;;;;18.29;90.09;101159.44;5028579;28;20144;-88
2021/07/16 06:07:08;;;;;;;29.33;13.68;;;;;;;18.28;90.01;101158.56;5012664;28;20056;-88
2021/07/16 06:09:40;;;;;;;35.05;12.63;;;;;;;18.30;89.96;101154.09;5026282;28;20455;-87
2021/07/16 06:15:01;;;;;;;34.03;14.68;;;;;;;18.36;89.36;101150.38;5030069;28;20715;-88
2021/07/16 06:17:31;;;;;;;26.65;13.05;;;;;;;18.38;89.22;101153.81;5015622;28;20136;-87
2021/07/16 06:20:19;;;;;;;21.85;13.02;;;;;;;18.39;89.16;101155.56;5031394;28;20064;-87
2021/07/16 06:22:48;;;;;;;30.98;14.02;;;;;;;18.41;88.92;101160.81;5026894;28;20057;-87
2021/07/16 06:28:11;;;;;;;34.85;12.43;;;;;;;18.43;88.46;101174.88;5013828;28;20065;-87
2021/07/16 06:30:41;;;;;;;24.42;12.43;;;;;;;18.41;88.59;101176.72;4996287;28;20056;-87
2021/07/16 06:33:11;;;;;;;30.40;12.63;;;;;;;18.38;88.42;101167.06;5013442;28;20371;-86
2021/07/16 06:35:47;;;;;;;18.77;11.30;;;;;;;18.40;88.39;101173.19;5029275;28;20093;-87
2021/07/16 06:38:53;;;;;;;;;;;;;;;;;;;;;
2021/07/16 06:41:51;;;;;;;19.77;10.45;;;;;;;18.52;87.81;101172.81;5018135;28;20048;-87
2021/07/16 06:44:21;;;;;;;;;;;;;;;18.59;86.88;101167.28;5030851;28;20121;-85
2021/07/16 06:46:57;;;;;;;23.75;10.38;;;;;;;18.61;86.76;101166.28;5026626;28;20019;-88
2021/07/16 06:49:27;;;;;;;24.75;11.23;;;;;;;18.59;86.88;101178.75;5016052;28;20183;-88
2021/07/16 06:52:20;;;;;;;24.70;11.15;;;;;;;18.62;86.76;101180.44;5023042;28;20052;-88
2021/07/16 06:54:50;;;;;;;22.45;11.63;;;;;;;18.74;86.52;101187.09;5044990;28;20053;-88
2021/07/16 06:57:19;;;;;;;23.13;10.48;;;;;;;18.83;85.97;101189.44;5027152;28;20501;-87
2021/07/16 07:00:20;;;;;;;19.95;11.32;;;;;;;18.91;85.32;101182.09;5010416;28;20053;-88
2021/07/16 07:03:00;;;;;;;;;;;;;;;;;;;;;
2021/07/16 07:05:50;;;;;;;22.88;10.18;;;;;;;18.98;85.18;101191.59;5042002;28;20636;-88
2021/07/16 07:08:20;;;;;;;21.50;9.93;;;;;;;19.00;84.94;101194.19;5016749;28;20498;-88
2021/07/16 07:10:50;;;;;;;23.60;11.75;;;;;;;19.04;84.77;101198.44;5017895;28;20415;-87
2021/07/16 07:13:19;;;;;;;25.33;9.52;;;;;;;19.08;84.40;101209.81;4993492;28;20063;-88
2021/07/16 07:15:58;;;;;;;23.60;10.35;;;;;;;19.12;84.63;101208.78;4988373;28;20518;-88
2021/07/16 07:18:29;;;;;;;18.65;10.32;;;;;;;19.19;84.28;101215.63;5007924;28;20631;-89
2021/07/16 07:20:58;;;;;;;19.77;10.25;;;;;;;19.20;84.14;101217.34;5009646;28;20046;-88
2021/07/16 07:23:37;;;;;;;40.97;12.43;;;;;;;19.15;83.86;101221.94;5022058;28;20076;-87
2021/07/16 07:26:38;;;;;;;20.25;10.07;;;;;;;19.10;84.11;101224.78;5021296;28;20560;-87
2021/07/16 07:29:30;;;;;;;25.27;10.65;;;;;;;19.05;84.18;101231.19;5001265;28;20049;-88
2021/07/16 07:32:01;;;;;;;22.92;9.52;;;;;;;19.00;84.44;101234.81;4989726;28;20053;-86
2021/07/16 07:35:01;;;;;;;26.50;11.75;;;;;;;18.93;84.79;101240.41;5009674;28;20041;-88
2021/07/16 07:37:28;;;;;;;24.88;10.25;;;;;;;18.97;84.57;101248.22;4975025;28;20115;-88
2021/07/16 07:39:58;;;;;;;21.40;10.35;;;;;;;18.95;84.58;101250.03;4991013;28;21270;-87
2021/07/16 07:42:37;;;;;;;21.63;10.10;;;;;;;18.91;84.27;101259.03;5008815;28;20041;-88
2021/07/16 07:45:10;;;;;;;22.73;10.77;;;;;;;18.86;84.65;101247.69;4989673;28;20407;-85
2021/07/16 07:48:01;;;;;;;;;;;;;;;;;;;;;
2021/07/16 07:50:59;;;;;;;26.73;10.07;;;;;;;18.91;84.47;101253.72;5021954;28;20088;-88
2021/07/16 07:56:39;;;;;;;22.13;9.80;;;;;;;18.92;84.31;101249.31;5008748;28;20135;-88
2021/07/16 07:59:10;;;;;;;24.85;9.55;;;;;;;18.95;84.35;101249.19;5008107;28;20470;-88
2021/07/16 08:01:40;;;;;;;30.35;10.40;;;;;;;19.04;83.90;101248.00;5002412;28;20060;-86
2021/07/16 08:04:18;;;;;;;15.95;8.43;;;;;;;19.14;83.46;101247.63;4988145;28;20140;-88
2021/07/16 08:09:39;;;;;;;27.17;9.85;;;;;;;19.24;82.92;101247.28;5005224;28;20037;-88
2021/07/16 08:12:09;;;;;;;23.95;9.38;;;;;;;19.28;82.83;101256.88;5008673;28;20282;-87
2021/07/16 08:14:39;;;;;;;20.25;10.55;;;;;;;19.31;82.70;101244.38;4987114;28;20045;-87
2021/07/16 08:17:08;;;;;;;22.13;10.05;;;;;;;19.33;82.26;101245.19;4990404;28;20053;-87
2021/07/16 08:19:40;;;;;;;21.00;9.75;;;;;;;19.38;82.06;101260.06;5005002;28;20148;-88
2021/07/16 08:22:10;;;;;;;19.23;9.75;;;;;;;19.39;82.23;101267.13;5008073;28;20103;-87
2021/07/16 08:25:10;;;;;;;26.48;9.98;;;;;;;19.37;82.05;101269.81;4987061;28;20393;-87
2021/07/16 08:27:50;;;;;;;;;;;;;;;;;;;;;
2021/07/16 08:31:47;;;;;;;29.08;9.90;;;;;;;19.40;81.95;101272.38;5011898;28;20060;-87
2021/07/16 08:34:18;;;;;;;20.85;8.75;;;;;;;19.51;81.82;101269.31;5010851;28;20045;-88
2021/07/16 08:36:48;;;;;;;14.10;8.73;;;;;;;19.62;81.37;101268.91;4991813;28;20068;-89
2021/07/16 08:39:17;;;;;;;19.05;7.95;;;;;;;19.74;80.93;101272.94;5006206;28;20045;-87
2021/07/16 08:41:57;;;;;;;31.88;9.93;;;;;;;19.85;80.19;101273.41;5006209;28;20156;-88
2021/07/16 08:44:27;;;;;;;19.55;8.10;;;;;;;19.87;80.16;101278.66;4992296;28;20046;-88
2021/07/16 08:47:06;;;;;;;15.13;7.82;;;;;;;19.85;80.00;101284.03;4996289;28;20053;-88
2021/07/16 08:49:41;;;;;;;19.90;8.55;;;;;;;19.86;80.16;101291.09;4988767;28;20405;-88
2021/07/16 08:52:09;;;;;;;14.25;8.02;;;;;;;19.86;79.95;101293.75;5004194;28;20057;-88
2021/07/16 08:54:45;;;;;;;18.98;9.18;;;;;;;19.81;79.70;101293.00;4993533;28;20053;-87
2021/07/16 08:57:22;;;;;;;9.70;6.65;;;;;;;19.77;80.12;101294.91;4993202;28;20045;-87
2021/07/16 09:00:11;;;;;;;;;;;;;;;;;;;;;
2021/07/16 09:02:59;;;;;;;17.20;8.18;;;;;;;19.86;79.48;101296.41;5002347;28;20467;-87
2021/07/16 09:05:40;;;;;;;12.75;7.57;;;;;;;19.98;78.63;101295.06;5013118;28;20234;-87
2021/07/16 09:08:39;;;;;;;12.65;7.25;;;;;;;20.11;77.95;101306.09;5000125;28;20054;-87
2021/07/16 09:11:26;;;;;;;11.27;6.68;;;;;;;20.17;78.06;101306.72;5007823;28;20049;-87
2021/07/16 09:13:57;;;;;;;15.48;7.40;;;;;;;20.16;77.87;101309.44;4992508;28;20750;-88
2021/07/16 09:17:08;;;;;;;15.43;7.65;;;;;;;20.14;77.67;101303.31;5014315;28;20053;-88
2021/07/16 09:20:58;;;;;;;12.82;7.40;;;;;;;20.11;77.85;101314.94;4957965;28;20050;-87
2021/07/16 09:24:07;;;;;;;15.68;8.20;;;;;;;20.21;77.66;101306.59;4990566;28;20567;-87
2021/07/16 09:26:42;;;;;;;22.40;10.02;;;;;;;20.31;77.00;101311.50;5014269;28;20046;-87
2021/07/16 09:29:09;;;;;;;18.60;8.68;;;;;;;20.33;76.83;101306.13;5013581;28;20041;-87
2021/07/16 09:31:40;;;;;;;18.88;8.27;;;;;;;20.37;76.71;101306.88;4991107;28;20045;-87
2021/07/16 09:34:14;;;;;;;17.73;8.45;;;;;;;20.42;76.42;101300.44;5015979;28;20076;-87
2021/07/16 09:37:07;;;;;;;15.98;8.75;;;;;;;20.49;76.10;101301.94;5013649;28;20053;-87
2021/07/16 09:39:38;;;;;;;18.70;8.48;;;;;;;20.67;75.85;101305.63;4998408;28;20046;-87
2021/07/16 09:42:21;;;;;;;13.05;7.32;;;;;;;21.05;73.93;101307.66;5006928;28;20037;-89
2021/07/16 09:44:59;;;;;;;12.90;6.82;;;;;;;21.39;71.56;101303.53;5013989;28;20050;-88
2021/07/16 09:47:31;;;;;;;14.15;7.22;;;;;;;21.78;70.58;101304.50;4997876;28;20170;-88
2021/07/16 09:53:30;;;;;;;15.82;6.85;;;;;;;22.40;67.27;101293.66;5027488;28;20060;-87
2021/07/16 09:56:21;;;;;;;9.57;6.45;;;;;;;22.51;67.07;101298.47;5012243;28;20049;-86
2021/07/16 09:59:01;;;;;;;13.05;6.80;;;;;;;22.73;66.54;101300.94;4996840;28;20534;-85
2021/07/16 10:01:48;;;;;;;8.45;6.05;;;;;;;22.84;65.28;101295.94;5008108;28;20045;-87
2021/07/16 10:04:33;;;;;;;;;;;;;;;;;;;;;
2021/07/16 10:07:18;;;;;;;16.52;7.28;;;;;;;23.54;62.95;101287.88;5017805;28;20057;-87
2021/07/16 10:09:50;;;;;;;12.82;5.30;;;;;;;24.36;60.91;101279.91;5014008;28;20046;-88
2021/07/16 10:12:20;;;;;;;9.48;6.28;;;;;;;25.24;57.29;101290.84;4996400;28;20108;-87
2021/07/16 10:14:50;;;;;;;10.02;5.95;;;;;;;25.57;55.62;101295.13;4988494;28;20053;-87
2021/07/16 10:17:19;;;;;;;15.93;5.97;;;;;;;25.63;55.53;101296.53;4992955;28;20156;-87
2021/07/16 10:20:07;;;;;;;11.75;5.53;;;;;;;25.37;55.33;101302.56;5009981;28;20756;-87
2021/07/16 10:22:47;;;;;;;15.63;6.07;;;;;;;24.85;56.54;101298.50;5005100;28;20111;-87
2021/07/16 10:25:31;;;;;;;;;;;;;;;;;;;;;
2021/07/16 10:27:57;;;;;;;12.45;6.00;;;;;;;24.45;58.47;101303.44;5009885;28;20072;-86
2021/07/16 10:30:37;;;;;;;12.73;5.43;;;;;;;24.54;57.71;101304.75;4989569;28;20479;-87
2021/07/16 10:33:10;;;;;;;7.70;5.13;;;;;;;24.94;56.82;101305.97;5011412;28;20045;-89
2021/07/16 10:35:41;;;;;;;13.90;6.32;;;;;;;25.56;54.60;101310.31;4988987;28;20041;-87
2021/07/16 10:38:55;;;;;;;17.80;5.57;;;;;;;25.86;53.03;101306.69;5006768;28;20054;-86
2021/07/16 10:41:37;;;;;;;10.75;5.40;;;;;;;26.39;51.69;101311.41;4963978;28;20061;-88
2021/07/16 10:44:26;;;;;;;;;;;;;;;;;;;;;
2021/07/16 10:47:01;;;;;;;17.20;6.15;;;;;;;26.71;50.81;101321.84;4991664;28;20051;-88
2021/07/16 10:49:58;;;;;;;10.57;5.20;;;;;;;26.39;50.94;101327.53;5005262;28;20129;-88
2021/07/16 10:52:51;;;;;;;11.32;5.10;;;;;;;26.05;52.00;101327.03;4990695;28;20386;-87
2021/07/16 10:55:47;;;;;;;10.48;5.28;;;;;;;25.80;53.00;101331.22;5005587;28;20059;-87
2021/07/16 10:58:21;;;;;;;9.50;5.10;;;;;;;25.23;54.66;101330.16;5005489;28;20404;-87
2021/07/16 11:01:01;;;;;;;13.57;5.75;;;;;;;24.77;56.10;101332.91;5005992;28;20773;-87
2021/07/16 11:03:51;;;;;;;11.80;6.15;;;;;;;24.58;56.66;101336.59;4987732;28;20433;-84
2021/07/16 11:06:20;;;;;;;15.88;5.50;;;;;;;24.62;56.81;101331.91;5003751;28;20060;-88
2021/07/16 11:08:47;;;;;;;10.13;5.20;;;;;;;24.80;56.54;101330.03;4972898;28;20126;-87
2021/07/16 11:11:47;;;;;;;13.05;6.80;;;;;;;24.87;55.72;101328.69;5029286;28;20056;-86
2021/07/16 11:14:33;;;;;;;16.10;6.63;;;;;;;24.90;55.52;101335.69;5025504;28;20045;-86
2021/07/16 11:17:10;;;;;;;10.55;5.82;;;;;;;25.40;54.73;101337.22;5024764;28;20517;-87
2021/07/16 11:19:37;;;;;;;12.75;6.40;;;;;;;25.81;53.27;101345.47;5009186;28;20561;-87
2021/07/16 11:22:08;;;;;;;15.18;6.20;;;;;;;26.04;52.49;101342.25;4992908;28;20048;-87
2021/07/16 11:24:47;;;;;;;11.50;5.53;;;;;;;26.30;51.82;101342.41;5026778;28;20036;-87
2021/07/16 11:27:20;;;;;;;12.25;5.88;;;;;;;26.48;51.31;101337.66;5031792;28;20045;-86
2021/07/16 11:36:58;;;;;;;13.40;6.32;;;;;;;26.03;52.67;101348.53;4941745;28;20086;-87
2021/07/16 11:39:40;;;;;;;12.38;5.10;;;;;;;26.03;52.82;101345.00;4941303;28;20164;-87
2021/07/16 11:42:09;;;;;;;17.17;6.20;;;;;;;26.35;52.00;101342.97;5008014;28;20052;-87
2021/07/16 11:44:48;;;;;;;10.30;6.20;;;;;;;26.88;50.37;101340.41;5023472;28;20585;-87
2021/07/16 11:47:22;;;;;;;11.13;6.25;;;;;;;27.08;50.17;101339.06;5007070;28;20049;-87
2021/07/16 11:50:07;;;;;;;21.25;7.25;;;;;;;27.69;48.84;101338.50;5025894;28;20075;-87
2021/07/16 11:52:48;;;;;;;12.52;6.22;;;;;;;28.34;47.37;101338.41;5023951;28;20047;-87
2021/07/16 11:55:29;;;;;;;14.07;6.47;;;;;;;28.12;47.53;101341.78;5022853;28;20650;-87
2021/07/16 11:58:01;;;;;;;15.30;7.00;;;;;;;27.56;49.39;101351.06;5023471;28;20052;-86
2021/07/16 12:00:41;;;;;;;13.63;6.68;;;;;;;26.96;50.89;101349.78;5005295;28;20140;-86
2021/07/16 12:03:17;;;;;;;8.82;4.97;;;;;;;26.59;51.73;101361.09;5022530;28;20049;-87
2021/07/16 12:05:51;;;;;;;12.10;6.03;;;;;;;26.23;52.66;101362.53;5023447;28;20106;-87
2021/07/16 12:08:30;;;;;;;20.98;7.25;;;;;;;25.75;54.35;101362.81;5010770;28;20044;-87
2021/07/16 12:11:18;;;;;;;13.15;6.68;;;;;;;25.20;55.74;101366.97;5020180;28;20582;-87
2021/07/16 12:14:00;;;;;;;14.18;7.13;;;;;;;24.73;57.28;101369.69;5024144;28;20805;-87
2021/07/16 12:16:29;;;;;;;15.13;7.10;;;;;;;24.42;58.48;101367.88;5023710;28;20863;-87
2021/07/16 12:18:59;;;;;;;12.30;6.70;;;;;;;24.13;59.53;101367.63;5023722;28;20106;-87
2021/07/16 12:21:42;;;;;;;;;;;;;;;;;;;;;
2021/07/16 12:24:12;;;;;;;18.42;7.60;;;;;;;23.83;60.50;101370.13;5022786;28;20053;-87
2021/07/16 12:27:00;;;;;;;15.05;7.13;;;;;;;23.70;60.73;101367.25;5009041;28;20060;-86
2021/07/16 12:29:30;;;;;;;19.50;7.53;;;;;;;23.66;61.35;101377.22;5042810;28;20160;-88
2021/07/16 12:31:59;;;;;;;15.77;6.63;;;;;;;23.59;61.61;101373.16;5020637;28;20045;-88
2021/07/16 12:34:34;;;;;;;15.48;6.70;;;;;;;23.56;61.96;101374.19;5023399;28;20144;-87
2021/07/16 12:37:50;;;;;;;18.83;8.20;;;;;;;23.55;61.97;101364.44;5011748;28;20060;-87
2021/07/16 12:40:28;;;;;;;22.20;8.65;;;;;;;23.57;62.09;101367.91;5023478;28;20060;-88